Zawiyat Shammas, Egypt
Current Conditions -  °F | °C
As of 11:00 PM on Wednesday 22 Oct 2014 (Local Time) from HEMM Reporting Station
Clear Clear  
Wind Chill: 73°   Ceiling: Unl
Heat Index: 73°   Visibility: 6mi
Dew Point: 48°   Wind: 10mph
Humidity: 41%   Direction: 210°SSW
Pressure: 29.91"   Gusts: NA
Location:  31.52°N, 26.4°E
Report Text: HEMM 222100Z 21009KT CAVOK 23/09 Q1013 NOSIG
Loading
Personal Weather Stations






























Interactive Weather Map New forecast layout! Learn more

10-Day Weather Forecast

Advertisements
Track Severe Weather on mobile